sensor_id;sensor_type;location;lat;lon;timestamp;pressure;altitude;pressure_sealevel;temperature;humidity
65716;BME280;63484;52.054;8.518;2023-07-09T00:04:45;100873.59;;;19.36;85.81
65716;BME280;63484;52.054;8.518;2023-07-09T00:09:47;100879.06;;;19.24;86.60
65716;BME280;63484;52.054;8.518;2023-07-09T00:14:50;100878.81;;;19.08;87.15
65716;BME280;63484;52.054;8.518;2023-07-09T00:19:52;100874.34;;;18.99;87.12
65716;BME280;63484;52.054;8.518;2023-07-09T00:24:55;100878.25;;;18.95;87.60
65716;BME280;63484;52.054;8.518;2023-07-09T00:29:58;100879.69;;;18.90;88.36
65716;BME280;63484;52.054;8.518;2023-07-09T00:35:00;100879.13;;;18.96;87.36
65716;BME280;63484;52.054;8.518;2023-07-09T00:40:19;100884.44;;;18.86;88.11
65716;BME280;63484;52.054;8.518;2023-07-09T00:45:23;100890.47;;;18.69;88.67
65716;BME280;63484;52.054;8.518;2023-07-09T00:50:34;100892.56;;;18.56;88.44
65716;BME280;63484;52.054;8.518;2023-07-09T00:55:39;100889.72;;;18.48;89.40
65716;BME280;63484;52.054;8.518;2023-07-09T01:00:49;100891.84;;;18.45;89.14
65716;BME280;63484;52.054;8.518;2023-07-09T01:05:53;100893.09;;;18.41;89.58
65716;BME280;63484;52.054;8.518;2023-07-09T01:10:56;100891.16;;;18.52;88.79
65716;BME280;63484;52.054;8.518;2023-07-09T01:15:59;100890.03;;;18.55;88.91
65716;BME280;63484;52.054;8.518;2023-07-09T01:21:09;100880.22;;;18.55;88.03
65716;BME280;63484;52.054;8.518;2023-07-09T01:26:18;100876.56;;;18.56;88.74
65716;BME280;63484;52.054;8.518;2023-07-09T01:31:21;100880.94;;;18.48;89.85
65716;BME280;63484;52.054;8.518;2023-07-09T01:36:25;100881.47;;;18.51;89.02
65716;BME280;63484;52.054;8.518;2023-07-09T01:41:29;100877.69;;;18.44;89.63
65716;BME280;63484;52.054;8.518;2023-07-09T01:46:34;100881.34;;;18.53;89.75
65716;BME280;63484;52.054;8.518;2023-07-09T01:51:40;100874.31;;;18.42;89.62
65716;BME280;63484;52.054;8.518;2023-07-09T01:56:41;100868.09;;;18.32;90.15
65716;BME280;63484;52.054;8.518;2023-07-09T02:01:43;100875.66;;;18.27;90.74
65716;BME280;63484;52.054;8.518;2023-07-09T02:06:46;100861.06;;;18.12;90.97
65716;BME280;63484;52.054;8.518;2023-07-09T02:11:48;100876.88;;;18.04;91.33
65716;BME280;63484;52.054;8.518;2023-07-09T02:16:50;100880.88;;;17.89;92.10
65716;BME280;63484;52.054;8.518;2023-07-09T02:21:53;100873.31;;;17.84;91.59
65716;BME280;63484;52.054;8.518;2023-07-09T02:26:56;100879.00;;;17.80;91.93
65716;BME280;63484;52.054;8.518;2023-07-09T02:31:59;100876.88;;;17.74;92.37
65716;BME280;63484;52.054;8.518;2023-07-09T02:37:03;100868.44;;;17.69;92.56
65716;BME280;63484;52.054;8.518;2023-07-09T02:42:08;100877.38;;;17.58;92.17
65716;BME280;63484;52.054;8.518;2023-07-09T02:47:10;100886.41;;;17.46;92.97
65716;BME280;63484;52.054;8.518;2023-07-09T02:52:13;100887.03;;;17.39;93.17
65716;BME280;63484;52.054;8.518;2023-07-09T02:57:15;100894.28;;;17.37;93.33
65716;BME280;63484;52.054;8.518;2023-07-09T03:02:17;100899.81;;;17.24;94.00
65716;BME280;63484;52.054;8.518;2023-07-09T03:07:20;100896.28;;;17.24;93.06
65716;BME280;63484;52.054;8.518;2023-07-09T03:12:22;100892.38;;;17.18;93.33
65716;BME280;63484;52.054;8.518;2023-07-09T03:17:24;100902.59;;;17.23;92.69
65716;BME280;63484;52.054;8.518;2023-07-09T03:22:27;100905.00;;;17.26;92.88
65716;BME280;63484;52.054;8.518;2023-07-09T03:27:28;100900.41;;;17.28;93.02
65716;BME280;63484;52.054;8.518;2023-07-09T03:32:30;100902.41;;;17.35;92.50
65716;BME280;63484;52.054;8.518;2023-07-09T03:37:33;100901.03;;;17.41;92.87
65716;BME280;63484;52.054;8.518;2023-07-09T03:42:35;100908.44;;;17.37;93.01
65716;BME280;63484;52.054;8.518;2023-07-09T03:47:37;100910.09;;;17.38;92.54
65716;BME280;63484;52.054;8.518;2023-07-09T03:52:40;100898.88;;;17.46;92.57
65716;BME280;63484;52.054;8.518;2023-07-09T03:57:41;100897.41;;;17.62;91.41
65716;BME280;63484;52.054;8.518;2023-07-09T04:02:43;100893.56;;;17.76;90.87
65716;BME280;63484;52.054;8.518;2023-07-09T04:07:46;100896.84;;;17.89;90.34
65716;BME280;63484;52.054;8.518;2023-07-09T04:12:48;100903.03;;;17.99;89.24
65716;BME280;63484;52.054;8.518;2023-07-09T04:17:49;100898.63;;;18.19;88.18
65716;BME280;63484;52.054;8.518;2023-07-09T04:22:53;100901.03;;;18.31;87.77
65716;BME280;63484;52.054;8.518;2023-07-09T04:27:55;100903.19;;;18.56;85.66
65716;BME280;63484;52.054;8.518;2023-07-09T04:32:57;100897.22;;;18.73;84.45
65716;BME280;63484;52.054;8.518;2023-07-09T04:38:00;100896.50;;;19.00;84.01
65716;BME280;63484;52.054;8.518;2023-07-09T04:43:02;100895.06;;;19.24;82.54
65716;BME280;63484;52.054;8.518;2023-07-09T04:48:05;100898.72;;;19.43;82.00
65716;BME280;63484;52.054;8.518;2023-07-09T04:53:08;100899.81;;;19.59;81.30
65716;BME280;63484;52.054;8.518;2023-07-09T04:58:12;100898.38;;;19.74;80.84
65716;BME280;63484;52.054;8.518;2023-07-09T05:03:13;100888.81;;;19.99;78.83
65716;BME280;63484;52.054;8.518;2023-07-09T05:08:16;100895.34;;;20.23;78.33
65716;BME280;63484;52.054;8.518;2023-07-09T05:13:19;100896.84;;;20.53;77.20
65716;BME280;63484;52.054;8.518;2023-07-09T05:18:20;100899.38;;;20.90;75.03
65716;BME280;63484;52.054;8.518;2023-07-09T05:23:25;100903.56;;;21.27;72.97
65716;BME280;63484;52.054;8.518;2023-07-09T05:28:28;100903.59;;;21.53;72.02
65716;BME280;63484;52.054;8.518;2023-07-09T05:33:29;100904.53;;;21.69;71.29
65716;BME280;63484;52.054;8.518;2023-07-09T05:38:32;100904.66;;;21.60;71.63
65716;BME280;63484;52.054;8.518;2023-07-09T05:43:34;100904.63;;;21.77;71.25
65716;BME280;63484;52.054;8.518;2023-07-09T05:48:36;100905.13;;;22.15;68.54
65716;BME280;63484;52.054;8.518;2023-07-09T05:53:39;100904.25;;;22.48;65.00
65716;BME280;63484;52.054;8.518;2023-07-09T05:58:41;100913.56;;;22.69;64.07
65716;BME280;63484;52.054;8.518;2023-07-09T06:03:42;100910.06;;;23.01;61.62
65716;BME280;63484;52.054;8.518;2023-07-09T06:08:50;100921.50;;;23.27;60.49
65716;BME280;63484;52.054;8.518;2023-07-09T06:13:54;100923.66;;;23.48;60.40
65716;BME280;63484;52.054;8.518;2023-07-09T06:18:56;100928.53;;;23.68;59.86
65716;BME280;63484;52.054;8.518;2023-07-09T06:23:59;100922.38;;;24.06;57.86
65716;BME280;63484;52.054;8.518;2023-07-09T06:29:00;100915.94;;;24.23;57.49
65716;BME280;63484;52.054;8.518;2023-07-09T06:34:02;100916.72;;;24.71;56.72
65716;BME280;63484;52.054;8.518;2023-07-09T06:39:06;100925.50;;;25.10;54.79
65716;BME280;63484;52.054;8.518;2023-07-09T06:44:07;100922.75;;;25.92;52.43
65716;BME280;63484;52.054;8.518;2023-07-09T06:49:11;100935.81;;;28.01;46.91
65716;BME280;63484;52.054;8.518;2023-07-09T06:54:14;100950.19;;;30.20;41.29
65716;BME280;63484;52.054;8.518;2023-07-09T06:59:16;100952.19;;;32.90;36.92
65716;BME280;63484;52.054;8.518;2023-07-09T07:04:18;100959.16;;;33.80;36.31
65716;BME280;63484;52.054;8.518;2023-07-09T07:09:21;100955.41;;;34.83;34.12
65716;BME280;63484;52.054;8.518;2023-07-09T07:14:23;100952.81;;;36.20;33.39
65716;BME280;63484;52.054;8.518;2023-07-09T07:19:24;100948.81;;;35.24;34.60
65716;BME280;63484;52.054;8.518;2023-07-09T07:24:27;100938.31;;;35.49;34.12
65716;BME280;63484;52.054;8.518;2023-07-09T07:29:29;100954.75;;;36.20;33.33
65716;BME280;63484;52.054;8.518;2023-07-09T07:34:33;100954.94;;;35.80;32.96
65716;BME280;63484;52.054;8.518;2023-07-09T07:39:36;100961.28;;;36.57;32.09
65716;BME280;63484;52.054;8.518;2023-07-09T07:44:40;100963.31;;;36.45;31.93
65716;BME280;63484;52.054;8.518;2023-07-09T07:49:42;100963.31;;;36.45;31.93
65716;BME280;63484;52.054;8.518;2023-07-09T07:54:45;100954.84;;;37.48;31.36
65716;BME280;63484;52.054;8.518;2023-07-09T07:59:47;100948.47;;;37.16;32.14
65716;BME280;63484;52.054;8.518;2023-07-09T08:04:49;100943.66;;;37.60;31.51
65716;BME280;63484;52.054;8.518;2023-07-09T08:09:52;100943.88;;;38.36;30.01
65716;BME280;63484;52.054;8.518;2023-07-09T08:14:54;100935.13;;;37.98;30.56
65716;BME280;63484;52.054;8.518;2023-07-09T08:19:55;100933.47;;;37.23;31.36
65716;BME280;63484;52.054;8.518;2023-07-09T08:25:00;100924.09;;;37.51;30.48
65716;BME280;63484;52.054;8.518;2023-07-09T08:30:02;100922.63;;;37.38;31.63
65716;BME280;63484;52.054;8.518;2023-07-09T08:35:05;100916.25;;;35.39;34.98
65716;BME280;63484;52.054;8.518;2023-07-09T08:40:12;100915.69;;;33.90;37.38
65716;BME280;63484;52.054;8.518;2023-07-09T08:45:26;100907.69;;;33.30;39.40
65716;BME280;63484;52.054;8.518;2023-07-09T08:50:36;100903.06;;;32.49;39.58
65716;BME280;63484;52.054;8.518;2023-07-09T08:55:40;100901.06;;;32.37;40.34
65716;BME280;63484;52.054;8.518;2023-07-09T09:00:51;100905.44;;;31.84;40.58
65716;BME280;63484;52.054;8.518;2023-07-09T09:05:55;100908.94;;;31.91;40.34
65716;BME280;63484;52.054;8.518;2023-07-09T09:11:09;100903.03;;;32.30;39.45
65716;BME280;63484;52.054;8.518;2023-07-09T09:16:22;100906.19;;;32.64;40.53
65716;BME280;63484;52.054;8.518;2023-07-09T09:21:29;100900.31;;;32.30;40.61
65716;BME280;63484;52.054;8.518;2023-07-09T09:26:34;100900.91;;;32.51;41.01
65716;BME280;63484;52.054;8.518;2023-07-09T09:31:41;100898.19;;;32.51;40.13
65716;BME280;63484;52.054;8.518;2023-07-09T09:36:46;100884.19;;;32.77;40.53
65716;BME280;63484;52.054;8.518;2023-07-09T09:41:53;100897.56;;;32.67;40.11
65716;BME280;63484;52.054;8.518;2023-07-09T09:46:57;100894.69;;;32.91;38.96
65716;BME280;63484;52.054;8.518;2023-07-09T09:52:02;100896.41;;;33.27;38.17
65716;BME280;63484;52.054;8.518;2023-07-09T09:57:16;100898.00;;;33.57;37.09
65716;BME280;63484;52.054;8.518;2023-07-09T10:02:20;100901.56;;;33.58;35.11
65716;BME280;63484;52.054;8.518;2023-07-09T10:07:30;100903.00;;;33.72;35.36
65716;BME280;63484;52.054;8.518;2023-07-09T10:12:39;100908.31;;;33.90;34.47
65716;BME280;63484;52.054;8.518;2023-07-09T10:17:54;100904.06;;;33.83;34.54
65716;BME280;63484;52.054;8.518;2023-07-09T10:23:03;100911.91;;;33.91;33.46
65716;BME280;63484;52.054;8.518;2023-07-09T10:28:35;100902.19;;;33.95;34.05
65716;BME280;63484;52.054;8.518;2023-07-09T10:33:49;100901.94;;;33.96;34.80
65716;BME280;63484;52.054;8.518;2023-07-09T10:38:59;100899.78;;;33.87;33.17
65716;BME280;63484;52.054;8.518;2023-07-09T10:44:08;100895.25;;;34.15;33.86
65716;BME280;63484;52.054;8.518;2023-07-09T10:49:14;100893.03;;;34.01;34.04
65716;BME280;63484;52.054;8.518;2023-07-09T10:54:24;100895.59;;;34.19;33.63
65716;BME280;63484;52.054;8.518;2023-07-09T10:59:35;100889.00;;;33.92;35.11
65716;BME280;63484;52.054;8.518;2023-07-09T11:04:43;100881.47;;;34.10;34.95
65716;BME280;63484;52.054;8.518;2023-07-09T11:09:48;100887.16;;;34.20;33.70
65716;BME280;63484;52.054;8.518;2023-07-09T11:15:01;100875.75;;;34.23;33.15
65716;BME280;63484;52.054;8.518;2023-07-09T11:20:14;100874.97;;;34.51;32.16
65716;BME280;63484;52.054;8.518;2023-07-09T11:25:27;100877.59;;;34.46;32.81
65716;BME280;63484;52.054;8.518;2023-07-09T11:30:30;100869.44;;;34.62;34.23
65716;BME280;63484;52.054;8.518;2023-07-09T11:35:45;100874.16;;;34.67;33.08
65716;BME280;63484;52.054;8.518;2023-07-09T11:40:51;100868.44;;;34.40;31.00
65716;BME280;63484;52.054;8.518;2023-07-09T11:46:07;100863.78;;;34.52;31.14
65716;BME280;63484;52.054;8.518;2023-07-09T11:51:15;100860.66;;;34.60;31.55
65716;BME280;63484;52.054;8.518;2023-07-09T11:56:22;100866.72;;;34.62;32.92
65716;BME280;63484;52.054;8.518;2023-07-09T12:01:27;100869.44;;;34.62;31.54
65716;BME280;63484;52.054;8.518;2023-07-09T12:06:33;100861.34;;;34.84;29.69
65716;BME280;63484;52.054;8.518;2023-07-09T12:11:35;100855.69;;;34.57;31.33
65716;BME280;63484;52.054;8.518;2023-07-09T12:16:40;100840.53;;;34.66;34.37
65716;BME280;63484;52.054;8.518;2023-07-09T12:21:46;100833.34;;;34.77;30.33
65716;BME280;63484;52.054;8.518;2023-07-09T12:26:49;100829.91;;;34.98;30.67
65716;BME280;63484;52.054;8.518;2023-07-09T12:31:52;100827.09;;;35.10;29.72
65716;BME280;63484;52.054;8.518;2023-07-09T12:36:54;100815.00;;;34.61;31.55
65716;BME280;63484;52.054;8.518;2023-07-09T12:42:00;100805.59;;;34.85;33.16
65716;BME280;63484;52.054;8.518;2023-07-09T12:47:04;100797.66;;;35.00;32.36
65716;BME280;63484;52.054;8.518;2023-07-09T12:52:13;100785.97;;;35.05;30.44
65716;BME280;63484;52.054;8.518;2023-07-09T12:57:17;100770.69;;;34.75;32.51
65716;BME280;63484;52.054;8.518;2023-07-09T13:02:25;100777.34;;;34.96;30.49
65716;BME280;63484;52.054;8.518;2023-07-09T13:07:31;100771.69;;;34.69;29.98
65716;BME280;63484;52.054;8.518;2023-07-09T13:12:38;100763.34;;;34.92;30.90
65716;BME280;63484;52.054;8.518;2023-07-09T13:17:44;100764.75;;;34.95;29.44
65716;BME280;63484;52.054;8.518;2023-07-09T13:22:46;100761.94;;;34.90;30.18
65716;BME280;63484;52.054;8.518;2023-07-09T13:27:50;100761.03;;;35.01;29.50
65716;BME280;63484;52.054;8.518;2023-07-09T13:32:54;100755.38;;;35.08;28.43
65716;BME280;63484;52.054;8.518;2023-07-09T13:37:55;100771.03;;;34.95;28.46
65716;BME280;63484;52.054;8.518;2023-07-09T13:42:58;100759.59;;;34.98;29.86
65716;BME280;63484;52.054;8.518;2023-07-09T13:48:01;100757.44;;;35.01;30.34
65716;BME280;63484;52.054;8.518;2023-07-09T13:53:03;100752.91;;;35.06;29.04
65716;BME280;63484;52.054;8.518;2023-07-09T13:58:05;100767.72;;;35.10;27.74
65716;BME280;63484;52.054;8.518;2023-07-09T14:03:14;100755.34;;;35.24;29.19
65716;BME280;63484;52.054;8.518;2023-07-09T14:08:16;100750.50;;;35.31;30.88
65716;BME280;63484;52.054;8.518;2023-07-09T14:13:21;100749.00;;;35.02;28.55
65716;BME280;63484;52.054;8.518;2023-07-09T14:18:28;100740.97;;;35.34;31.16
65716;BME280;63484;52.054;8.518;2023-07-09T14:23:30;100746.03;;;35.25;28.78
65716;BME280;63484;52.054;8.518;2023-07-09T14:28:31;100739.38;;;35.00;31.47
65716;BME280;63484;52.054;8.518;2023-07-09T14:33:35;100729.03;;;34.68;31.61
65716;BME280;63484;52.054;8.518;2023-07-09T14:38:37;100721.41;;;34.87;31.02
65716;BME280;63484;52.054;8.518;2023-07-09T14:43:39;100703.91;;;34.71;31.55
65716;BME280;63484;52.054;8.518;2023-07-09T14:48:42;100687.22;;;34.51;32.59
65716;BME280;63484;52.054;8.518;2023-07-09T14:53:44;100681.19;;;34.38;32.69
65716;BME280;63484;52.054;8.518;2023-07-09T14:58:45;100670.44;;;34.31;32.46
65716;BME280;63484;52.054;8.518;2023-07-09T15:03:48;100672.75;;;34.23;33.06
65716;BME280;63484;52.054;8.518;2023-07-09T15:08:50;100680.53;;;34.31;31.86
65716;BME280;63484;52.054;8.518;2023-07-09T15:13:52;100671.94;;;34.22;32.76
65716;BME280;63484;52.054;8.518;2023-07-09T15:18:55;100667.16;;;34.46;33.27
65716;BME280;63484;52.054;8.518;2023-07-09T15:23:57;100664.75;;;34.49;34.41
65716;BME280;63484;52.054;8.518;2023-07-09T15:29:01;100663.72;;;34.39;34.73
65716;BME280;63484;52.054;8.518;2023-07-09T15:34:06;100661.31;;;34.26;35.26
65716;BME280;63484;52.054;8.518;2023-07-09T15:39:10;100645.91;;;34.03;35.51
65716;BME280;63484;52.054;8.518;2023-07-09T15:44:12;100648.34;;;33.88;35.76
65716;BME280;63484;52.054;8.518;2023-07-09T15:49:15;100658.97;;;33.45;37.21
65716;BME280;63484;52.054;8.518;2023-07-09T15:54:18;100654.72;;;33.26;39.27
65716;BME280;63484;52.054;8.518;2023-07-09T15:59:26;100657.59;;;32.85;40.98
65716;BME280;63484;52.054;8.518;2023-07-09T16:04:30;100664.72;;;32.39;42.18
65716;BME280;63484;52.054;8.518;2023-07-09T16:09:32;100669.75;;;32.13;42.02
65716;BME280;63484;52.054;8.518;2023-07-09T16:14:34;100686.47;;;31.87;44.15
65716;BME280;63484;52.054;8.518;2023-07-09T16:19:37;100677.94;;;31.65;43.22
65716;BME280;63484;52.054;8.518;2023-07-09T16:24:39;100657.88;;;31.48;43.71
65716;BME280;63484;52.054;8.518;2023-07-09T16:29:43;100654.09;;;31.31;46.82
65716;BME280;63484;52.054;8.518;2023-07-09T16:34:48;100653.78;;;31.03;49.72
65716;BME280;63484;52.054;8.518;2023-07-09T16:39:50;100649.31;;;30.66;50.93
65716;BME280;63484;52.054;8.518;2023-07-09T16:44:52;100645.88;;;30.34;52.33
65716;BME280;63484;52.054;8.518;2023-07-09T16:49:57;100633.31;;;30.09;51.53
65716;BME280;63484;52.054;8.518;2023-07-09T16:55:01;100626.63;;;29.80;52.81
65716;BME280;63484;52.054;8.518;2023-07-09T17:00:25;100705.50;;;29.21;60.44
65716;BME280;63484;52.054;8.518;2023-07-09T17:05:28;100703.66;;;28.76;53.37
65716;BME280;63484;52.054;8.518;2023-07-09T17:10:30;100722.72;;;27.90;56.94
65716;BME280;63484;52.054;8.518;2023-07-09T17:15:35;100739.91;;;26.80;68.36
65716;BME280;63484;52.054;8.518;2023-07-09T17:20:41;100747.88;;;25.39;76.06
65716;BME280;63484;52.054;8.518;2023-07-09T17:25:43;100770.66;;;24.85;78.69
65716;BME280;63484;52.054;8.518;2023-07-09T17:30:46;100851.56;;;24.30;82.17
65716;BME280;63484;52.054;8.518;2023-07-09T17:35:50;100854.81;;;24.17;84.18
65716;BME280;63484;52.054;8.518;2023-07-09T17:40:53;100859.25;;;24.02;86.83
65716;BME280;63484;52.054;8.518;2023-07-09T17:45:57;100833.13;;;23.72;88.09
65716;BME280;63484;52.054;8.518;2023-07-09T17:51:02;100851.34;;;23.46;89.58
65716;BME280;63484;52.054;8.518;2023-07-09T17:56:18;100858.09;;;23.26;92.44
65716;BME280;63484;52.054;8.518;2023-07-09T18:01:20;100874.03;;;23.11;92.50
65716;BME280;63484;52.054;8.518;2023-07-09T18:06:24;100920.28;;;22.97;93.82
65716;BME280;63484;52.054;8.518;2023-07-09T18:11:27;100960.69;;;22.96;94.49
65716;BME280;63484;52.054;8.518;2023-07-09T18:16:29;101038.84;;;23.01;96.65
65716;BME280;63484;52.054;8.518;2023-07-09T18:21:33;101034.66;;;22.98;94.76
65716;BME280;63484;52.054;8.518;2023-07-09T18:26:35;101057.47;;;23.02;97.15
65716;BME280;63484;52.054;8.518;2023-07-09T18:31:37;101010.81;;;22.87;96.85
65716;BME280;63484;52.054;8.518;2023-07-09T18:36:40;100987.50;;;22.88;96.54
65716;BME280;63484;52.054;8.518;2023-07-09T18:41:42;100960.66;;;22.80;95.21
65716;BME280;63484;52.054;8.518;2023-07-09T18:46:47;100913.56;;;22.77;97.51
65716;BME280;63484;52.054;8.518;2023-07-09T18:51:50;100856.38;;;22.53;97.68
65716;BME280;63484;52.054;8.518;2023-07-09T18:56:52;100826.31;;;22.41;97.69
65716;BME280;63484;52.054;8.518;2023-07-09T19:01:54;100787.59;;;22.28;99.71
65716;BME280;63484;52.054;8.518;2023-07-09T19:06:57;100759.13;;;22.19;99.73
65716;BME280;63484;52.054;8.518;2023-07-09T19:11:58;100748.25;;;22.20;100.00
65716;BME280;63484;52.054;8.518;2023-07-09T19:17:14;100725.78;;;22.21;100.00
65716;BME280;63484;52.054;8.518;2023-07-09T19:22:18;100706.22;;;22.13;100.00
65716;BME280;63484;52.054;8.518;2023-07-09T19:27:22;100674.88;;;22.13;100.00
65716;BME280;63484;52.054;8.518;2023-07-09T19:32:26;100708.88;;;21.97;100.00
65716;BME280;63484;52.054;8.518;2023-07-09T19:37:29;100696.13;;;22.07;100.00
65716;BME280;63484;52.054;8.518;2023-07-09T19:42:31;100721.59;;;21.94;100.00
65716;BME280;63484;52.054;8.518;2023-07-09T19:47:34;100741.13;;;21.87;100.00
65716;BME280;63484;52.054;8.518;2023-07-09T19:52:41;100741.63;;;21.82;100.00
65716;BME280;63484;52.054;8.518;2023-07-09T19:57:42;100750.84;;;21.80;100.00
65716;BME280;63484;52.054;8.518;2023-07-09T20:02:44;100772.09;;;21.81;100.00
65716;BME280;63484;52.054;8.518;2023-07-09T20:07:50;100784.41;;;21.74;100.00
65716;BME280;63484;52.054;8.518;2023-07-09T20:12:53;100788.16;;;21.81;100.00
65716;BME280;63484;52.054;8.518;2023-07-09T20:17:58;100802.75;;;21.61;100.00
65716;BME280;63484;52.054;8.518;2023-07-09T20:23:02;100799.38;;;21.51;100.00
65716;BME280;63484;52.054;8.518;2023-07-09T20:28:08;100801.88;;;21.53;100.00
65716;BME280;63484;52.054;8.518;2023-07-09T20:33:15;100817.59;;;21.48;100.00
65716;BME280;63484;52.054;8.518;2023-07-09T20:38:21;100829.41;;;21.37;100.00
65716;BME280;63484;52.054;8.518;2023-07-09T20:43:25;100825.66;;;21.30;100.00
65716;BME280;63484;52.054;8.518;2023-07-09T20:48:27;100826.53;;;21.31;100.00
65716;BME280;63484;52.054;8.518;2023-07-09T20:53:31;100827.31;;;21.23;100.00
65716;BME280;63484;52.054;8.518;2023-07-09T20:58:32;100838.00;;;21.23;100.00
65716;BME280;63484;52.054;8.518;2023-07-09T21:03:34;100828.06;;;21.16;100.00
65716;BME280;63484;52.054;8.518;2023-07-09T21:08:37;100819.25;;;21.15;100.00
65716;BME280;63484;52.054;8.518;2023-07-09T21:13:39;100813.78;;;20.99;100.00
65716;BME280;63484;52.054;8.518;2023-07-09T21:18:41;100814.34;;;20.93;100.00
65716;BME280;63484;52.054;8.518;2023-07-09T21:23:44;100822.94;;;20.79;100.00
65716;BME280;63484;52.054;8.518;2023-07-09T21:28:48;100829.88;;;20.72;100.00
65716;BME280;63484;52.054;8.518;2023-07-09T21:33:52;100852.03;;;20.64;100.00
65716;BME280;63484;52.054;8.518;2023-07-09T21:38:57;100843.31;;;20.62;100.00
65716;BME280;63484;52.054;8.518;2023-07-09T21:43:59;100842.13;;;20.57;100.00
65716;BME280;63484;52.054;8.518;2023-07-09T21:49:00;100846.31;;;20.59;100.00
65716;BME280;63484;52.054;8.518;2023-07-09T21:54:21;100841.19;;;20.66;100.00
65716;BME280;63484;52.054;8.518;2023-07-09T21:59:30;100843.16;;;20.64;100.00
65716;BME280;63484;52.054;8.518;2023-07-09T22:04:33;100843.63;;;20.59;100.00
65716;BME280;63484;52.054;8.518;2023-07-09T22:09:40;100849.84;;;20.60;100.00
65716;BME280;63484;52.054;8.518;2023-07-09T22:14:42;100832.16;;;20.67;100.00
65716;BME280;63484;52.054;8.518;2023-07-09T22:19:44;100837.50;;;20.67;100.00
65716;BME280;63484;52.054;8.518;2023-07-09T22:24:48;100851.72;;;20.67;100.00
65716;BME280;63484;52.054;8.518;2023-07-09T22:29:52;100861.28;;;20.70;100.00
65716;BME280;63484;52.054;8.518;2023-07-09T22:34:54;100842.88;;;20.67;100.00
65716;BME280;63484;52.054;8.518;2023-07-09T22:40:01;100823.88;;;20.70;100.00
65716;BME280;63484;52.054;8.518;2023-07-09T22:45:13;100829.66;;;20.65;100.00
65716;BME280;63484;52.054;8.518;2023-07-09T22:50:18;100813.63;;;20.65;100.00
65716;BME280;63484;52.054;8.518;2023-07-09T22:55:36;100813.63;;;20.65;100.00
65716;BME280;63484;52.054;8.518;2023-07-09T23:00:43;100810.34;;;20.54;100.00
65716;BME280;63484;52.054;8.518;2023-07-09T23:05:45;100813.31;;;20.51;100.00
65716;BME280;63484;52.054;8.518;2023-07-09T23:10:49;100806.84;;;20.53;100.00
65716;BME280;63484;52.054;8.518;2023-07-09T23:15:51;100806.94;;;20.44;100.00
65716;BME280;63484;52.054;8.518;2023-07-09T23:20:54;100810.34;;;20.36;100.00
65716;BME280;63484;52.054;8.518;2023-07-09T23:26:00;100811.50;;;20.34;100.00
65716;BME280;63484;52.054;8.518;2023-07-09T23:31:04;100815.28;;;20.31;100.00
65716;BME280;63484;52.054;8.518;2023-07-09T23:36:09;100824.47;;;20.29;100.00
65716;BME280;63484;52.054;8.518;2023-07-09T23:41:23;100817.81;;;20.33;100.00
65716;BME280;63484;52.054;8.518;2023-07-09T23:46:28;100842.16;;;20.30;100.00
65716;BME280;63484;52.054;8.518;2023-07-09T23:51:31;100842.53;;;20.35;100.00
65716;BME280;63484;52.054;8.518;2023-07-09T23:56:34;100833.66;;;20.44;100.00
